createdAt,value
2022-10-23T00:00:40.757Z,98932.27
2022-10-23T00:01:41.658Z,98933.84
2022-10-23T00:02:41.038Z,98934.53
2022-10-23T00:03:40.696Z,98933.16
2022-10-23T00:04:40.663Z,98933.44
2022-10-23T00:05:40.912Z,98934.46
2022-10-23T00:06:40.911Z,98934.92
2022-10-23T00:07:40.717Z,98935.67
2022-10-23T00:08:41.329Z,98932.73
2022-10-23T00:09:40.794Z,98934.05
2022-10-23T00:10:41.809Z,98933.98
2022-10-23T00:11:40.828Z,98933.85
2022-10-23T00:12:41.175Z,98929.91
2022-10-23T00:13:40.828Z,98931.36
2022-10-23T00:14:40.841Z,98928.73
2022-10-23T00:15:40.879Z,98932.84
2022-10-23T00:16:40.914Z,98931.2
2022-10-23T00:17:41.386Z,98929.36
2022-10-23T00:18:41.304Z,98929.03
2022-10-23T00:19:40.928Z,98927.84
2022-10-23T00:20:40.947Z,98927.58
2022-10-23T00:21:41.889Z,98926.14
2022-10-23T00:22:40.967Z,98927.42
2022-10-23T00:23:41.530Z,98924.47
2022-10-23T00:24:41.016Z,98929.67
2022-10-23T00:25:41.026Z,98927.12
2022-10-23T00:26:41.242Z,98927.66
2022-10-23T00:27:41.404Z,98926.34
2022-10-23T00:28:45.062Z,98929.41
2022-10-23T00:29:41.304Z,98929.15
2022-10-23T00:30:41.320Z,98921.88
2022-10-23T00:31:41.322Z,98926.26
2022-10-23T00:32:41.385Z,98922.58
2022-10-23T00:33:42.321Z,98922.02
2022-10-23T00:34:41.621Z,98921.19
2022-10-23T00:35:42.084Z,98920.77
2022-10-23T00:36:41.423Z,98923.5
2022-10-23T00:37:42.081Z,98917.56
2022-10-23T00:38:41.940Z,98923.22
2022-10-23T00:39:41.480Z,98920.09
2022-10-23T00:40:41.504Z,98921.53
2022-10-23T00:41:41.492Z,98923.38
2022-10-23T00:42:41.986Z,98918.63
2022-10-23T00:45:43.968Z,98922.02
2022-10-23T00:46:45.067Z,98919.84
2022-10-23T00:47:44.136Z,98920.59
2022-10-23T00:48:44.003Z,98915.23
2022-10-23T00:49:44.199Z,98914.8
2022-10-23T00:50:44.393Z,98915.17
2022-10-23T00:51:48.693Z,98912.86
2022-10-23T00:54:01.055Z,98916.22
2022-10-23T00:54:51.426Z,98916.7
2022-10-23T00:55:52.407Z,98918.91
2022-10-23T00:56:52.937Z,98913.28
2022-10-23T00:57:52.212Z,98912.75
2022-10-23T00:58:51.462Z,98914.67
2022-10-23T00:59:51.621Z,98917.18
2022-10-23T01:00:52.985Z,98910.41
2022-10-23T01:01:51.938Z,98908.81
2022-10-23T01:02:51.955Z,98907.3
2022-10-23T01:03:51.742Z,98907.94
2022-10-23T01:04:51.531Z,98904.8
2022-10-23T01:08:08.703Z,98907.32
2022-10-23T01:11:12.184Z,98905.46
2022-10-23T01:12:15.137Z,98903.52
2022-10-23T01:13:14.824Z,98904.95
2022-10-23T01:14:23.034Z,98903.61
2022-10-23T01:15:28.980Z,98898.28
2022-10-23T01:16:21.640Z,98901.19
2022-10-23T01:17:22.223Z,98902.3
2022-10-23T01:18:33.208Z,98899.5
2022-10-23T01:24:43.694Z,98899.02
2022-10-23T01:27:42.274Z,98900.59
2022-10-23T01:28:44.549Z,98898.03
2022-10-23T01:29:49.375Z,98900.85
2022-10-23T01:30:46.672Z,98899.88
2022-10-23T01:31:50.100Z,98902.34
2022-10-23T01:32:52.672Z,98902.01
2022-10-23T01:33:51.836Z,98899.95
2022-10-23T01:34:51.644Z,98898.41
2022-10-23T01:35:53.406Z,98898.86
2022-10-23T01:36:51.468Z,98900.77
2022-10-23T01:37:54.840Z,98896.3
2022-10-23T01:38:58.685Z,98901.28
2022-10-23T01:39:59.678Z,98900.95
2022-10-23T01:40:59.602Z,98901.64
2022-10-23T01:41:59.586Z,98895.67
2022-10-23T01:42:59.731Z,98898.98
2022-10-23T01:43:59.774Z,98896.75
2022-10-23T01:45:00.956Z,98899.41
2022-10-23T01:46:02.172Z,98900.03
2022-10-23T01:46:58.611Z,98896.69
2022-10-23T01:48:00.264Z,98896.62
2022-10-23T01:48:59.851Z,98897
2022-10-23T01:49:59.668Z,98896.58
2022-10-23T01:51:04.244Z,98893.78
2022-10-23T01:52:02.913Z,98896.69
2022-10-23T01:53:00.711Z,98895.14
2022-10-23T01:54:00.916Z,98896
2022-10-23T01:55:01.099Z,98896.05
2022-10-23T01:56:02.640Z,98896.12
2022-10-23T01:57:02.453Z,98892
2022-10-23T01:58:01.987Z,98893.11
2022-10-23T01:59:05.571Z,98889.83
2022-10-23T02:00:04.966Z,98885.55
2022-10-23T02:01:04.786Z,98884.9
2022-10-23T02:02:02.944Z,98885.04
2022-10-23T02:03:02.623Z,98885.93
2022-10-23T02:04:03.268Z,98884.09
2022-10-23T02:06:05.796Z,98881.51
2022-10-23T02:07:05.582Z,98883.02
2022-10-23T02:08:06.302Z,98883.42
2022-10-23T02:09:05.989Z,98885.42
2022-10-23T02:10:11.750Z,98883.95
2022-10-23T02:11:18.472Z,98886.12
2022-10-23T02:12:13.300Z,98882.09
2022-10-23T02:13:13.783Z,98882.55
2022-10-23T02:14:20.362Z,98879.66
2022-10-23T02:15:17.148Z,98880.45
2022-10-23T02:20:23.884Z,98873.84
2022-10-23T02:21:33.967Z,98875.05
2022-10-23T02:22:30.486Z,98871.64
2022-10-23T02:23:40.032Z,98877.05
2022-10-23T02:24:34.362Z,98874.48
2022-10-23T02:25:37.135Z,98872.03
2022-10-23T02:26:36.147Z,98874.66
2022-10-23T02:27:46.785Z,98876.16
2022-10-23T02:28:40.358Z,98875.62
2022-10-23T02:29:51.694Z,98875.23
2022-10-23T02:30:45.680Z,98877.2
2022-10-23T02:31:43.542Z,98875.86
2022-10-23T02:32:47.637Z,98878.05
2022-10-23T02:33:46.715Z,98879.43
2022-10-23T02:34:44.279Z,98875.49
2022-10-23T02:35:45.144Z,98875.85
2022-10-23T02:36:44.681Z,98873.14
2022-10-23T02:37:51.753Z,98872.29
2022-10-23T02:38:48.567Z,98870.91
2022-10-23T02:39:48.590Z,98870.2
2022-10-23T02:40:48.435Z,98871.58
2022-10-23T02:41:54.861Z,98868.33
2022-10-23T02:42:56.435Z,98869.67
2022-10-23T02:44:07.348Z,98870.76
2022-10-23T02:48:17.018Z,98867.25
2022-10-23T02:49:14.620Z,98867.88
2022-10-23T02:50:20.607Z,98863.94
2022-10-23T02:51:22.273Z,98868.07
2022-10-23T02:53:27.189Z,98860.73
2022-10-23T02:54:25.840Z,98862.66
2022-10-23T02:55:33.450Z,98858.95
2022-10-23T02:56:38.506Z,98856.95
2022-10-23T02:57:33.251Z,98855.55
2022-10-23T02:58:38.476Z,98856.86
2022-10-23T02:59:37.078Z,98857.94
2022-10-23T03:00:35.620Z,98858.1
2022-10-23T03:01:38.747Z,98851.34
2022-10-23T03:02:46.880Z,98851.94
2022-10-23T03:03:42.143Z,98851.19
2022-10-23T03:04:40.219Z,98857.73
2022-10-23T03:05:40.271Z,98853.18
2022-10-23T03:06:38.986Z,98855.77
2022-10-23T03:07:39.821Z,98858.19
2022-10-23T03:08:48.789Z,98857.92
2022-10-23T03:09:40.382Z,98858.97
2022-10-23T03:10:41.341Z,98858.22
2022-10-23T03:11:40.465Z,98858.19
2022-10-23T03:12:40.976Z,98853.23
2022-10-23T03:13:40.811Z,98855.78
2022-10-23T03:14:40.548Z,98853.3
2022-10-23T03:15:40.486Z,98858.37
2022-10-23T03:16:40.539Z,98857.52
2022-10-23T03:17:40.577Z,98855.09
2022-10-23T03:18:40.623Z,98857.8
2022-10-23T03:19:40.564Z,98853.31
2022-10-23T03:20:40.587Z,98854.59
2022-10-23T03:21:40.673Z,98853.89
2022-10-23T03:22:41.159Z,98853.86
2022-10-23T03:23:40.718Z,98853.08
2022-10-23T03:24:40.615Z,98853.72
2022-10-23T03:25:40.651Z,98851.72
2022-10-23T03:26:40.692Z,98851.36
2022-10-23T03:27:40.683Z,98846.22
2022-10-23T03:28:40.713Z,98844.7
2022-10-23T03:29:40.714Z,98847.44
2022-10-23T03:30:40.719Z,98843.16
2022-10-23T03:31:40.791Z,98842.5
2022-10-23T03:32:40.976Z,98843.58
2022-10-23T03:33:40.793Z,98841.45
2022-10-23T03:34:40.832Z,98841.59
2022-10-23T03:35:40.889Z,98838.64
2022-10-23T03:36:40.915Z,98837.8
2022-10-23T03:37:41.175Z,98839.05
2022-10-23T03:38:40.897Z,98842.91
2022-10-23T03:39:40.925Z,98836.82
2022-10-23T03:40:40.954Z,98834.5
2022-10-23T03:41:40.973Z,98832.63
2022-10-23T03:42:40.930Z,98834.27
2022-10-23T03:43:40.910Z,98836.47
2022-10-23T03:44:41.116Z,98836.99
2022-10-23T03:45:41.173Z,98833.58
2022-10-23T03:46:41.952Z,98835.78
2022-10-23T03:47:41.496Z,98836.59
2022-10-23T03:48:41.022Z,98837.48
2022-10-23T03:49:41.185Z,98837.94
2022-10-23T03:50:41.293Z,98841.91
2022-10-23T03:51:41.093Z,98836.73
2022-10-23T03:52:41.363Z,98839.55
2022-10-23T03:53:41.117Z,98839.74
2022-10-23T03:54:41.360Z,98841.52
2022-10-23T03:55:41.176Z,98841.35
2022-10-23T03:56:41.148Z,98841.12
2022-10-23T03:57:41.219Z,98840.27
2022-10-23T03:58:41.180Z,98837.81
2022-10-23T03:59:41.199Z,98837.84
2022-10-23T04:01:41.384Z,98835.77
2022-10-23T04:02:41.903Z,98840.14
2022-10-23T04:03:41.321Z,98840.62
2022-10-23T04:04:41.396Z,98834.62
2022-10-23T04:05:41.969Z,98835.73
2022-10-23T04:06:41.510Z,98837.91
2022-10-23T04:07:41.551Z,98839.41
2022-10-23T04:08:42.647Z,98835.45
2022-10-23T04:09:41.362Z,98833.64
2022-10-23T04:10:41.361Z,98834.53
2022-10-23T04:11:41.418Z,98835.55
2022-10-23T04:12:41.795Z,98831.34
2022-10-23T04:13:41.546Z,98838.69
2022-10-23T04:14:41.446Z,98836.2
2022-10-23T04:15:47.246Z,98836.36
2022-10-23T04:16:43.853Z,98832.5
2022-10-23T04:17:43.917Z,98836.07
2022-10-23T04:18:44.036Z,98833.71
2022-10-23T04:19:43.912Z,98838.56
2022-10-23T04:20:44.697Z,98839.67
2022-10-23T04:21:44.459Z,98834.04
2022-10-23T04:22:44.520Z,98835.91
2022-10-23T04:23:44.225Z,98834.83
2022-10-23T04:24:44.162Z,98834.53
2022-10-23T04:25:44.112Z,98837.74
2022-10-23T04:26:43.992Z,98834.33
2022-10-23T04:27:44.335Z,98831.25
2022-10-23T04:28:44.060Z,98830.59
2022-10-23T04:29:44.206Z,98830.92
2022-10-23T04:30:44.092Z,98827.11
2022-10-23T04:31:44.082Z,98826.92
2022-10-23T04:32:44.150Z,98830.42
2022-10-23T04:33:44.204Z,98828.45
2022-10-23T04:34:44.342Z,98828.82
2022-10-23T04:35:44.178Z,98827.44
2022-10-23T04:36:44.175Z,98829.14
2022-10-23T04:37:45.148Z,98827.6
2022-10-23T04:38:44.259Z,98826.74
2022-10-23T04:39:44.203Z,98826.78
2022-10-23T04:40:44.269Z,98830.73
2022-10-23T04:41:44.271Z,98827.36
2022-10-23T04:42:44.548Z,98826.08
2022-10-23T04:43:44.299Z,98826.34
2022-10-23T04:44:44.355Z,98821.81
2022-10-23T04:45:44.334Z,98823.42
2022-10-23T04:46:44.374Z,98822.23
2022-10-23T04:47:44.376Z,98819.09
2022-10-23T04:48:44.617Z,98821.34
2022-10-23T04:49:44.422Z,98821.31
2022-10-23T04:51:44.422Z,98821.14
2022-10-23T04:52:44.826Z,98818.34
2022-10-23T04:53:45.161Z,98818.78
2022-10-23T04:54:44.833Z,98817.66
2022-10-23T04:55:54.936Z,98815.55
2022-10-23T04:56:46.611Z,98816.8
2022-10-23T04:57:47.025Z,98817
2022-10-23T04:58:47.649Z,98819.73
2022-10-23T04:59:46.854Z,98812.84
2022-10-23T05:00:47.591Z,98817.08
2022-10-23T05:01:46.825Z,98815.92
2022-10-23T05:02:46.650Z,98813.66
2022-10-23T05:03:46.810Z,98813.68
2022-10-23T05:04:46.777Z,98811.91
2022-10-23T05:05:46.677Z,98810.7
2022-10-23T05:06:46.711Z,98814.06
2022-10-23T05:07:46.731Z,98809.27
2022-10-23T05:08:46.720Z,98812.59
2022-10-23T05:09:46.780Z,98807.42
2022-10-23T05:10:47.596Z,98809.78
2022-10-23T05:11:46.763Z,98814.41
2022-10-23T05:12:46.810Z,98814.53
2022-10-23T05:13:46.811Z,98818.28
2022-10-23T05:14:47.060Z,98823.33
2022-10-23T05:15:48.032Z,98824.17
2022-10-23T05:17:52.066Z,98827.44
2022-10-23T05:18:50.115Z,98825.18
2022-10-23T05:19:52.982Z,98825.78
2022-10-23T05:20:51.735Z,98824.76
2022-10-23T05:21:50.914Z,98830.23
2022-10-23T05:22:51.638Z,98825.53
2022-10-23T05:23:50.627Z,98824.34
2022-10-23T05:24:50.762Z,98823.09
2022-10-23T05:25:50.228Z,98825.69
2022-10-23T05:26:51.177Z,98820.59
2022-10-23T05:27:50.236Z,98824.75
2022-10-23T05:28:50.253Z,98819.14
2022-10-23T05:29:50.283Z,98815.73
2022-10-23T05:30:50.744Z,98817.33
2022-10-23T05:31:54.380Z,98816.22
2022-10-23T05:32:50.587Z,98819.47
2022-10-23T05:33:52.542Z,98811.36
2022-10-23T05:34:51.389Z,98817.48
2022-10-23T05:35:51.558Z,98818.62
2022-10-23T05:36:52.473Z,98820.01
2022-10-23T05:37:53.406Z,98816.81
2022-10-23T05:38:51.703Z,98814.02
2022-10-23T05:39:51.855Z,98817.3
2022-10-23T05:40:52.141Z,98818.66
2022-10-23T05:41:51.469Z,98818.52
2022-10-23T05:42:51.498Z,98817.2
2022-10-23T05:43:51.520Z,98820.38
2022-10-23T05:44:51.524Z,98818
2022-10-23T05:45:51.730Z,98819.75
2022-10-23T05:46:51.633Z,98816.14
2022-10-23T05:47:51.588Z,98823.59
2022-10-23T05:48:51.894Z,98821.41
2022-10-23T05:49:51.605Z,98824.28
2022-10-23T05:50:51.637Z,98825.19
2022-10-23T05:51:51.894Z,98821.59
2022-10-23T05:52:51.666Z,98824.93
2022-10-23T05:53:52.687Z,98826.55
2022-10-23T05:54:51.875Z,98828.77
2022-10-23T05:55:51.725Z,98827.3
2022-10-23T05:56:52.052Z,98829.5
2022-10-23T05:57:51.749Z,98828.72
2022-10-23T05:58:51.760Z,98830.75
2022-10-23T05:59:51.808Z,98826.7
2022-10-23T06:00:51.788Z,98827.12
2022-10-23T06:01:52.007Z,98825.68
2022-10-23T06:02:51.822Z,98826.31
2022-10-23T06:03:51.862Z,98824.98
2022-10-23T06:04:51.846Z,98826.7
2022-10-23T06:05:52.052Z,98826.75
2022-10-23T06:06:51.925Z,98823.42
2022-10-23T06:07:51.915Z,98822.98
2022-10-23T06:08:51.938Z,98825.38
2022-10-23T06:09:52.206Z,98820.09
2022-10-23T06:10:51.965Z,98818.51
2022-10-23T06:11:52.001Z,98818.3
2022-10-23T06:12:51.996Z,98820.73
2022-10-23T06:13:52.082Z,98820.59
2022-10-23T06:14:52.072Z,98823.2
2022-10-23T06:15:52.005Z,98828.42
2022-10-23T06:16:52.293Z,98826.42
2022-10-23T06:17:52.060Z,98830.53
2022-10-23T06:18:52.269Z,98829.3
2022-10-23T06:19:52.101Z,98826.75
2022-10-23T06:20:52.093Z,98828.83
2022-10-23T06:21:52.164Z,98827.11
2022-10-23T06:22:52.416Z,98832.27
2022-10-23T06:23:52.145Z,98832.23
2022-10-23T06:24:52.167Z,98837.44
2022-10-23T06:25:52.392Z,98837.14
2022-10-23T06:26:52.199Z,98836.12
2022-10-23T06:27:52.205Z,98838.08
2022-10-23T06:28:52.266Z,98838.69
2022-10-23T06:29:52.243Z,98836.49
2022-10-23T06:30:52.316Z,98836.55
2022-10-23T06:31:52.345Z,98836.58
2022-10-23T06:32:52.288Z,98837.73
2022-10-23T06:33:52.762Z,98838.09
2022-10-23T06:34:52.308Z,98842.09
2022-10-23T06:35:55.235Z,98839.55
2022-10-23T06:36:52.415Z,98840.94
2022-10-23T06:37:52.373Z,98841.51
2022-10-23T06:38:52.476Z,98841.91
2022-10-23T06:39:52.367Z,98841.52
2022-10-23T06:40:53.332Z,98838.81
2022-10-23T06:41:52.441Z,98836.94
2022-10-23T06:42:52.450Z,98837.85
2022-10-23T06:43:52.476Z,98839.16
2022-10-23T06:44:52.476Z,98837.86
2022-10-23T06:45:52.482Z,98833.56
2022-10-23T06:46:52.515Z,98834.38
2022-10-23T06:47:52.720Z,98834.49
2022-10-23T06:48:52.587Z,98835.89
2022-10-23T06:49:52.526Z,98835.03
2022-10-23T06:50:52.551Z,98837.07
2022-10-23T06:51:52.552Z,98833.53
2022-10-23T06:52:53.036Z,98833.98
2022-10-23T06:53:52.578Z,98833.49
2022-10-23T06:54:52.604Z,98837.38
2022-10-23T06:55:55.324Z,98843.7
2022-10-23T06:56:52.621Z,98843.41
2022-10-23T06:57:53.246Z,98848.02
2022-10-23T06:58:52.667Z,98850.54
2022-10-23T06:59:52.677Z,98851.19
2022-10-23T07:00:52.852Z,98849.1
2022-10-23T07:02:53.139Z,98854.2
2022-10-23T07:03:52.816Z,98850.64
2022-10-23T07:04:52.726Z,98856.47
2022-10-23T07:05:52.755Z,98849.94
2022-10-23T07:06:54.601Z,98851.64
2022-10-23T07:07:52.805Z,98854.61
2022-10-23T07:08:52.808Z,98849.44
2022-10-23T07:09:52.785Z,98856.7
2022-10-23T07:10:52.826Z,98850.31
2022-10-23T07:11:52.837Z,98855.61
2022-10-23T07:12:53.018Z,98849.98
2022-10-23T07:13:53.462Z,98855.1
2022-10-23T07:14:52.897Z,98855.61
2022-10-23T07:15:52.885Z,98855.21
2022-10-23T07:16:52.915Z,98855.59
2022-10-23T07:17:53.155Z,98856.92
2022-10-23T07:18:56.832Z,98854.09
2022-10-23T07:19:53.039Z,98855.12
2022-10-23T07:20:57.558Z,98849.81
2022-10-23T07:21:53.765Z,98851.81
2022-10-23T07:22:54.951Z,98851.44
2022-10-23T07:23:53.797Z,98852.27
2022-10-23T07:24:53.846Z,98848.78
2022-10-23T07:25:53.865Z,98852.06
2022-10-23T07:26:53.847Z,98852.52
2022-10-23T07:27:53.863Z,98853.72
2022-10-23T07:28:54.255Z,98856.11
2022-10-23T07:29:54.104Z,98853.9
2022-10-23T07:31:56.527Z,98860.05
2022-10-23T07:32:56.326Z,98857.33
2022-10-23T07:33:56.380Z,98854.95
2022-10-23T07:34:56.421Z,98857.86
2022-10-23T07:35:56.564Z,98859.7
2022-10-23T07:36:56.396Z,98854.74
2022-10-23T07:37:58.844Z,98853.58
2022-10-23T07:38:56.427Z,98858.23
2022-10-23T07:39:56.549Z,98856.8
2022-10-23T07:40:57.325Z,98854.79
2022-10-23T07:41:56.455Z,98858.28
2022-10-23T07:42:56.482Z,98861.18
2022-10-23T07:43:56.461Z,98852.48
2022-10-23T07:44:56.507Z,98864.71
2022-10-23T07:45:56.545Z,98860.97
2022-10-23T07:46:56.539Z,98863.08
2022-10-23T07:47:56.545Z,98862.59
2022-10-23T07:48:56.563Z,98863.33
2022-10-23T07:49:56.586Z,98869.72
2022-10-23T07:51:00.364Z,98867.03
2022-10-23T07:51:56.619Z,98871.16
2022-10-23T07:52:56.615Z,98872.33
2022-10-23T07:53:56.652Z,98870.59
2022-10-23T07:54:56.674Z,98873.5
2022-10-23T07:56:00.900Z,98873.12
2022-10-23T07:56:58.440Z,98873.79
2022-10-23T07:57:57.141Z,98874.68
2022-10-23T07:58:57.367Z,98875.55
2022-10-23T07:59:57.163Z,98875.45
2022-10-23T08:00:58.797Z,98874.18
2022-10-23T08:01:57.299Z,98871.02
2022-10-23T08:02:57.215Z,98869.35
2022-10-23T08:03:57.401Z,98877.57
2022-10-23T08:04:57.291Z,98875.41
2022-10-23T08:05:57.681Z,98874.6
2022-10-23T08:06:57.246Z,98871.4
2022-10-23T08:07:57.274Z,98864.1
2022-10-23T08:08:59.895Z,98868.14
2022-10-23T08:09:58.526Z,98867.7
2022-10-23T08:10:58.604Z,98865.73
2022-10-23T08:11:58.533Z,98873.23
2022-10-23T08:12:58.556Z,98869.58
2022-10-23T08:13:58.760Z,98870.4
2022-10-23T08:14:58.600Z,98866.7
2022-10-23T08:15:58.575Z,98868.12
2022-10-23T08:16:58.623Z,98872.34
2022-10-23T08:17:58.622Z,98873.34
2022-10-23T08:18:58.620Z,98875.03
2022-10-23T08:19:58.746Z,98873.36
2022-10-23T08:21:03.124Z,98875.45
2022-10-23T08:21:59.339Z,98875.09
2022-10-23T08:22:59.775Z,98876.5
2022-10-23T08:24:00.415Z,98881.12
2022-10-23T08:24:59.403Z,98881.16
2022-10-23T08:26:00.382Z,98878.94
2022-10-23T08:26:59.433Z,98879.86
2022-10-23T08:28:02.009Z,98879.73
2022-10-23T08:29:00.706Z,98880.38
2022-10-23T08:30:00.540Z,98880.9
2022-10-23T08:32:02.384Z,98879.05
2022-10-23T08:33:03.434Z,98881.12
2022-10-23T08:34:02.389Z,98875.29
2022-10-23T08:35:02.640Z,98877.34
2022-10-23T08:36:02.829Z,98876.62
2022-10-23T08:37:02.442Z,98876.45
2022-10-23T08:38:02.602Z,98873.95
2022-10-23T08:39:02.475Z,98878.93
2022-10-23T08:40:03.360Z,98878.97
2022-10-23T08:41:02.517Z,98882.8
2022-10-23T08:42:02.684Z,98881.17
2022-10-23T08:46:15.769Z,98887.53
2022-10-23T08:47:18.344Z,98884.28
2022-10-23T08:48:18.491Z,98889.48
2022-10-23T08:49:28.915Z,98889.69
2022-10-23T08:51:29.336Z,98893.09
2022-10-23T08:55:36.041Z,98890.98
2022-10-23T08:57:39.990Z,98891.59
2022-10-23T09:00:42.385Z,98889.26
2022-10-23T09:01:43.278Z,98892.05
2022-10-23T09:02:46.450Z,98890.22
2022-10-23T09:03:43.232Z,98892.52
2022-10-23T09:04:44.802Z,98888.41
2022-10-23T09:07:55.872Z,98886.28
2022-10-23T09:08:59.234Z,98888.02
2022-10-23T09:12:07.045Z,98885.49
2022-10-23T09:18:16.696Z,98887.36
2022-10-23T09:19:17.427Z,98891.56
2022-10-23T09:21:25.119Z,98886.72
2022-10-23T09:22:22.050Z,98892.66
2022-10-23T09:23:22.929Z,98893.37
2022-10-23T09:24:23.013Z,98893.64
2022-10-23T09:25:26.108Z,98896.74
2022-10-23T09:26:22.991Z,98898.58
2022-10-23T09:27:22.855Z,98897.28
2022-10-23T09:28:24.232Z,98898.14
2022-10-23T09:29:24.767Z,98897.61
2022-10-23T09:31:22.933Z,98898.78
2022-10-23T09:32:33.114Z,98894.83
2022-10-23T09:33:26.688Z,98899.25
2022-10-23T09:34:25.976Z,98893.97
2022-10-23T09:35:26.255Z,98899.83
2022-10-23T09:36:25.654Z,98903.2
2022-10-23T09:37:26.526Z,98905.45
2022-10-23T09:42:36.475Z,98901.91
2022-10-23T09:43:36.661Z,98897.75
2022-10-23T09:44:36.524Z,98900.74
2022-10-23T09:45:36.512Z,98900.94
2022-10-23T09:47:40.126Z,98899.64
2022-10-23T09:48:40.160Z,98903.16
2022-10-23T09:52:51.563Z,98905.06
2022-10-23T09:53:53.732Z,98902.83
2022-10-23T09:54:52.931Z,98903.34
2022-10-23T09:55:54.144Z,98896.41
2022-10-23T09:56:51.486Z,98903.86
2022-10-23T09:57:50.758Z,98904.44
2022-10-23T09:58:57.359Z,98906.2
2022-10-23T09:59:55.213Z,98905.06
2022-10-23T10:00:55.461Z,98902.19
2022-10-23T10:01:57.820Z,98897.34
2022-10-23T10:03:01.265Z,98902.02
2022-10-23T10:03:57.938Z,98898.84
2022-10-23T10:04:58.300Z,98902.43
2022-10-23T10:06:04.434Z,98898.12
2022-10-23T10:07:01.981Z,98895.12
2022-10-23T10:10:03.108Z,98900.06
2022-10-23T10:23:46.763Z,98896.22
2022-10-23T10:35:04.333Z,98903.91
2022-10-23T10:39:15.849Z,98901.47
2022-10-23T10:45:33.076Z,98900.18
2022-10-23T10:49:44.356Z,98900.72
2022-10-23T10:50:47.456Z,98904.18
2022-10-23T10:53:59.959Z,98903.41
2022-10-23T10:54:57.304Z,98905.77
2022-10-23T10:55:55.139Z,98904.93
2022-10-23T10:56:55.288Z,98902.02
2022-10-23T10:57:59.937Z,98896.27
2022-10-23T10:59:02.455Z,98901.97
2022-10-23T11:01:01.884Z,98904.65
2022-10-23T11:06:18.255Z,98907.15
2022-10-23T11:07:18.876Z,98909.91
2022-10-23T11:08:19.287Z,98909.81
2022-10-23T11:09:21.037Z,98907.09
2022-10-23T11:10:19.133Z,98908.4
2022-10-23T11:11:21.040Z,98906.16
2022-10-23T11:12:19.754Z,98911.3
2022-10-23T11:14:21.879Z,98909.33
2022-10-23T11:15:26.311Z,98910.07
2022-10-23T11:16:25.376Z,98908.48
2022-10-23T11:18:29.321Z,98908.98
2022-10-23T11:19:30.667Z,98912.75
2022-10-23T11:21:33.715Z,98913.32
2022-10-23T11:22:36.596Z,98912.56
2022-10-23T11:36:13.045Z,98921.87
2022-10-23T11:37:04.683Z,98916.28
2022-10-23T11:38:17.336Z,98919.73
2022-10-23T11:39:17.977Z,98919.73
2022-10-23T11:40:18.189Z,98923.8
2022-10-23T11:42:14.774Z,98922.2
2022-10-23T11:43:11.661Z,98924.38
2022-10-23T11:45:28.597Z,98924.1
2022-10-23T11:46:29.091Z,98923.12
2022-10-23T11:48:23.157Z,98928.72
2022-10-23T11:49:21.212Z,98924.5
2022-10-23T11:50:26.216Z,98926.29
2022-10-23T11:51:27.186Z,98922.36
2022-10-23T11:52:24.827Z,98921.61
2022-10-23T11:54:25.010Z,98926.52
2022-10-23T11:55:25.468Z,98925.48
2022-10-23T11:56:25.656Z,98925.25
2022-10-23T11:57:24.107Z,98924.49
2022-10-23T11:58:25.409Z,98923.12
2022-10-23T11:59:31.811Z,98923.27
2022-10-23T12:00:29.680Z,98923
2022-10-23T12:01:40.857Z,98923.8
2022-10-23T12:02:40.771Z,98923.43
2022-10-23T12:05:38.739Z,98924.58
2022-10-23T12:07:40.493Z,98921.17
2022-10-23T12:08:40.195Z,98918.95
2022-10-23T12:10:46.749Z,98925.17
2022-10-23T12:11:44.858Z,98922
2022-10-23T12:12:43.009Z,98923.33
2022-10-23T12:13:44.745Z,98921.69
2022-10-23T12:16:51.269Z,98926.71
2022-10-23T12:17:52.528Z,98924.98
2022-10-23T12:18:52.640Z,98926.5
2022-10-23T12:19:53.403Z,98928
2022-10-23T12:20:53.827Z,98926.06
2022-10-23T12:21:52.564Z,98923.11
2022-10-23T12:25:04.387Z,98927.26
2022-10-23T12:26:04.670Z,98923.63
2022-10-23T12:32:17.099Z,98926.1
2022-10-23T12:33:16.100Z,98923.91
2022-10-23T12:34:20.487Z,98925.84
2022-10-23T12:38:31.300Z,98932.42
2022-10-23T12:39:26.161Z,98935.28
2022-10-23T12:40:25.448Z,98936.25
2022-10-23T12:41:27.049Z,98937.41
2022-10-23T12:42:26.691Z,98934.74
2022-10-23T12:43:30.494Z,98935.47
2022-10-23T12:44:26.905Z,98938.14
2022-10-23T12:47:31.616Z,98933.02
2022-10-23T12:48:32.719Z,98935.85
2022-10-23T12:49:32.292Z,98940
2022-10-23T12:50:32.706Z,98937.91
2022-10-23T12:51:32.635Z,98937.7
2022-10-23T12:52:31.463Z,98936.7
2022-10-23T12:53:31.462Z,98938.42
2022-10-23T12:54:32.977Z,98939.77
2022-10-23T12:56:35.511Z,98942.02
2022-10-23T12:57:42.245Z,98943.39
2022-10-23T12:58:35.187Z,98941.83
2022-10-23T12:59:37.883Z,98935.12
2022-10-23T13:00:34.633Z,98940.39
2022-10-23T13:01:34.975Z,98944.23
2022-10-23T13:02:34.829Z,98942.11
2022-10-23T13:03:35.076Z,98948.2
2022-10-23T13:04:35.429Z,98950.98
2022-10-23T13:05:35.066Z,98947.4
2022-10-23T13:06:34.855Z,98947.52
2022-10-23T13:07:37.113Z,98949.27
2022-10-23T13:08:40.198Z,98948.48
2022-10-23T13:09:40.902Z,98943.16
2022-10-23T13:10:37.848Z,98945.75
2022-10-23T13:11:38.445Z,98950.91
2022-10-23T13:12:38.946Z,98949.22
2022-10-23T13:13:39.689Z,98952.12
2022-10-23T13:14:43.609Z,98948.06
2022-10-23T13:15:42.283Z,98953.14
2022-10-23T13:16:41.290Z,98953.7
2022-10-23T13:17:42.908Z,98954.93
2022-10-23T13:18:41.700Z,98956.48
2022-10-23T13:19:41.344Z,98951.56
2022-10-23T13:21:45.915Z,98956.41
2022-10-23T13:22:43.897Z,98959.53
2022-10-23T13:23:43.229Z,98955.02
2022-10-23T13:24:43.529Z,98960.33
2022-10-23T13:25:43.280Z,98958.23
2022-10-23T13:26:43.030Z,98964.38
2022-10-23T13:27:43.427Z,98962.12
2022-10-23T13:28:44.412Z,98959.81
2022-10-23T13:29:43.229Z,98964.09
2022-10-23T13:30:44.048Z,98964.48
2022-10-23T13:31:43.076Z,98955.75
2022-10-23T13:32:43.492Z,98962.2
2022-10-23T13:33:44.451Z,98962.03
2022-10-23T13:34:58.158Z,98961.8
2022-10-23T13:37:47.732Z,98961
2022-10-23T13:40:55.286Z,98961.52
2022-10-23T13:41:51.755Z,98961.3
2022-10-23T13:42:52.506Z,98963.47
2022-10-23T13:43:51.541Z,98962.77
2022-10-23T13:44:51.533Z,98962.62
2022-10-23T13:45:51.563Z,98959.09
2022-10-23T13:46:52.273Z,98964.81
2022-10-23T13:47:52.011Z,98964.28
2022-10-23T13:48:52.051Z,98964.55
2022-10-23T13:49:51.619Z,98963.14
2022-10-23T13:50:51.834Z,98961.98
2022-10-23T13:51:53.344Z,98965.08
2022-10-23T13:52:51.737Z,98965.59
2022-10-23T13:53:52.166Z,98966.05
2022-10-23T13:54:51.735Z,98966.88
2022-10-23T13:55:53.660Z,98965.27
2022-10-23T13:56:53.535Z,98971.83
2022-10-23T13:57:52.744Z,98965.97
2022-10-23T13:58:52.914Z,98971.61
2022-10-23T13:59:52.750Z,98971.63
2022-10-23T14:00:52.942Z,98967.67
2022-10-23T14:01:53.012Z,98972.52
2022-10-23T14:02:52.831Z,98967.89
2022-10-23T14:03:53.561Z,98967.81
2022-10-23T14:04:52.838Z,98967.81
2022-10-23T14:05:53.179Z,98966.87
2022-10-23T14:06:52.851Z,98972.09
2022-10-23T14:07:53.133Z,98968.19
2022-10-23T14:08:52.868Z,98970.48
2022-10-23T14:09:52.916Z,98973.62
2022-10-23T14:10:52.917Z,98970.2
2022-10-23T14:11:52.936Z,98973.91
2022-10-23T14:12:52.952Z,98976.92
2022-10-23T14:13:52.981Z,98979.88
2022-10-23T14:14:53.490Z,98978.62
2022-10-23T14:15:56.509Z,98981.08
2022-10-23T14:16:53.514Z,98978.93
2022-10-23T14:17:58.090Z,98980.17
2022-10-23T14:18:56.795Z,98983.39
2022-10-23T14:19:56.381Z,98984.9
2022-10-23T14:20:59.623Z,98987.42